sensor_id;sensor_type;location;lat;lon;timestamp;P1;durP1;ratioP1;P2;durP2;ratioP2
25449;SDS011;13371;52.080;5.624;2024-02-26T00:01:23;5.65;;;3.45;;
25449;SDS011;13371;52.080;5.624;2024-02-26T00:03:49;4.65;;;3.38;;
25449;SDS011;13371;52.080;5.624;2024-02-26T00:06:15;5.72;;;3.55;;
25449;SDS011;13371;52.080;5.624;2024-02-26T00:08:40;5.00;;;3.28;;
25449;SDS011;13371;52.080;5.624;2024-02-26T00:11:06;5.88;;;4.00;;
25449;SDS011;13371;52.080;5.624;2024-02-26T00:13:32;5.32;;;3.67;;
25449;SDS011;13371;52.080;5.624;2024-02-26T00:15:57;7.10;;;3.97;;
25449;SDS011;13371;52.080;5.624;2024-02-26T00:18:23;6.53;;;3.22;;
25449;SDS011;13371;52.080;5.624;2024-02-26T00:20:49;10.55;;;3.75;;
25449;SDS011;13371;52.080;5.624;2024-02-26T00:23:15;7.22;;;3.72;;
25449;SDS011;13371;52.080;5.624;2024-02-26T00:25:40;4.53;;;3.42;;
25449;SDS011;13371;52.080;5.624;2024-02-26T00:28:08;7.82;;;3.63;;
25449;SDS011;13371;52.080;5.624;2024-02-26T00:30:35;4.32;;;3.05;;
25449;SDS011;13371;52.080;5.624;2024-02-26T00:33:00;6.47;;;3.75;;
25449;SDS011;13371;52.080;5.624;2024-02-26T00:35:26;8.02;;;3.47;;
25449;SDS011;13371;52.080;5.624;2024-02-26T00:37:52;6.63;;;3.58;;
25449;SDS011;13371;52.080;5.624;2024-02-26T00:40:18;6.07;;;3.80;;
25449;SDS011;13371;52.080;5.624;2024-02-26T00:42:43;9.45;;;4.97;;
25449;SDS011;13371;52.080;5.624;2024-02-26T00:45:11;5.55;;;3.63;;
25449;SDS011;13371;52.080;5.624;2024-02-26T00:47:37;5.35;;;3.80;;
25449;SDS011;13371;52.080;5.624;2024-02-26T00:50:06;6.45;;;3.72;;
25449;SDS011;13371;52.080;5.624;2024-02-26T00:52:33;7.75;;;3.65;;
25449;SDS011;13371;52.080;5.624;2024-02-26T00:54:59;5.35;;;3.78;;
25449;SDS011;13371;52.080;5.624;2024-02-26T00:57:25;5.65;;;3.38;;
25449;SDS011;13371;52.080;5.624;2024-02-26T00:59:50;5.55;;;3.35;;
25449;SDS011;13371;52.080;5.624;2024-02-26T01:02:16;8.30;;;3.58;;
25449;SDS011;13371;52.080;5.624;2024-02-26T01:04:42;6.97;;;3.80;;
25449;SDS011;13371;52.080;5.624;2024-02-26T01:07:07;6.53;;;4.38;;
25449;SDS011;13371;52.080;5.624;2024-02-26T01:09:33;6.15;;;4.05;;
25449;SDS011;13371;52.080;5.624;2024-02-26T01:11:59;9.00;;;4.63;;
25449;SDS011;13371;52.080;5.624;2024-02-26T01:14:25;6.88;;;4.43;;
25449;SDS011;13371;52.080;5.624;2024-02-26T01:16:51;7.15;;;4.72;;
25449;SDS011;13371;52.080;5.624;2024-02-26T01:19:16;8.02;;;4.72;;
25449;SDS011;13371;52.080;5.624;2024-02-26T01:21:42;7.68;;;4.78;;
25449;SDS011;13371;52.080;5.624;2024-02-26T01:24:08;6.75;;;4.72;;
25449;SDS011;13371;52.080;5.624;2024-02-26T01:26:33;9.15;;;4.47;;
25449;SDS011;13371;52.080;5.624;2024-02-26T01:28:59;6.70;;;4.43;;
25449;SDS011;13371;52.080;5.624;2024-02-26T01:31:25;6.28;;;3.85;;
25449;SDS011;13371;52.080;5.624;2024-02-26T01:33:51;10.70;;;4.70;;
25449;SDS011;13371;52.080;5.624;2024-02-26T01:36:17;7.55;;;4.65;;
25449;SDS011;13371;52.080;5.624;2024-02-26T01:38:43;7.30;;;4.50;;
25449;SDS011;13371;52.080;5.624;2024-02-26T01:41:08;7.93;;;5.15;;
25449;SDS011;13371;52.080;5.624;2024-02-26T01:43:34;8.27;;;4.90;;
25449;SDS011;13371;52.080;5.624;2024-02-26T01:46:00;8.27;;;5.15;;
25449;SDS011;13371;52.080;5.624;2024-02-26T01:48:26;9.18;;;5.45;;
25449;SDS011;13371;52.080;5.624;2024-02-26T01:50:52;9.27;;;5.05;;
25449;SDS011;13371;52.080;5.624;2024-02-26T01:53:17;7.95;;;5.07;;
25449;SDS011;13371;52.080;5.624;2024-02-26T01:55:44;9.13;;;5.30;;
25449;SDS011;13371;52.080;5.624;2024-02-26T01:58:10;11.20;;;6.05;;
25449;SDS011;13371;52.080;5.624;2024-02-26T02:00:37;9.05;;;5.65;;
25449;SDS011;13371;52.080;5.624;2024-02-26T02:03:03;9.38;;;5.70;;
25449;SDS011;13371;52.080;5.624;2024-02-26T02:05:30;12.23;;;5.65;;
25449;SDS011;13371;52.080;5.624;2024-02-26T02:07:56;9.85;;;4.95;;
25449;SDS011;13371;52.080;5.624;2024-02-26T02:10:22;10.90;;;5.82;;
25449;SDS011;13371;52.080;5.624;2024-02-26T02:12:50;8.68;;;5.30;;
25449;SDS011;13371;52.080;5.624;2024-02-26T02:15:16;8.93;;;5.13;;
25449;SDS011;13371;52.080;5.624;2024-02-26T02:17:42;12.32;;;6.13;;
25449;SDS011;13371;52.080;5.624;2024-02-26T02:20:09;9.45;;;5.18;;
25449;SDS011;13371;52.080;5.624;2024-02-26T02:22:40;8.30;;;5.20;;
25449;SDS011;13371;52.080;5.624;2024-02-26T02:25:05;9.40;;;5.63;;
25449;SDS011;13371;52.080;5.624;2024-02-26T02:27:31;8.43;;;5.32;;
25449;SDS011;13371;52.080;5.624;2024-02-26T02:29:57;9.43;;;5.32;;
25449;SDS011;13371;52.080;5.624;2024-02-26T02:32:23;11.55;;;5.57;;
25449;SDS011;13371;52.080;5.624;2024-02-26T02:34:50;12.68;;;5.00;;
25449;SDS011;13371;52.080;5.624;2024-02-26T02:37:16;8.35;;;5.45;;
25449;SDS011;13371;52.080;5.624;2024-02-26T02:39:44;8.35;;;5.20;;
25449;SDS011;13371;52.080;5.624;2024-02-26T02:42:10;7.55;;;5.22;;
25449;SDS011;13371;52.080;5.624;2024-02-26T02:44:35;6.82;;;4.40;;
25449;SDS011;13371;52.080;5.624;2024-02-26T02:47:01;9.27;;;5.35;;
25449;SDS011;13371;52.080;5.624;2024-02-26T02:49:27;8.40;;;5.07;;
25449;SDS011;13371;52.080;5.624;2024-02-26T02:51:55;8.05;;;4.60;;
25449;SDS011;13371;52.080;5.624;2024-02-26T02:54:22;8.40;;;4.88;;
25449;SDS011;13371;52.080;5.624;2024-02-26T02:56:48;8.07;;;4.95;;
25449;SDS011;13371;52.080;5.624;2024-02-26T02:59:13;11.20;;;4.85;;
25449;SDS011;13371;52.080;5.624;2024-02-26T03:01:39;9.60;;;5.55;;
25449;SDS011;13371;52.080;5.624;2024-02-26T03:04:05;8.48;;;4.70;;
25449;SDS011;13371;52.080;5.624;2024-02-26T03:06:30;8.50;;;5.03;;
25449;SDS011;13371;52.080;5.624;2024-02-26T03:08:56;7.95;;;4.68;;
25449;SDS011;13371;52.080;5.624;2024-02-26T03:11:22;8.75;;;5.72;;
25449;SDS011;13371;52.080;5.624;2024-02-26T03:13:47;8.93;;;5.45;;
25449;SDS011;13371;52.080;5.624;2024-02-26T03:16:13;11.23;;;5.50;;
25449;SDS011;13371;52.080;5.624;2024-02-26T03:18:39;9.95;;;5.68;;
25449;SDS011;13371;52.080;5.624;2024-02-26T03:21:05;9.25;;;5.03;;
25449;SDS011;13371;52.080;5.624;2024-02-26T03:23:31;7.70;;;5.05;;
25449;SDS011;13371;52.080;5.624;2024-02-26T03:25:57;9.20;;;5.63;;
25449;SDS011;13371;52.080;5.624;2024-02-26T03:28:23;8.60;;;5.18;;
25449;SDS011;13371;52.080;5.624;2024-02-26T03:30:49;10.65;;;5.47;;
25449;SDS011;13371;52.080;5.624;2024-02-26T03:33:14;9.63;;;6.07;;
25449;SDS011;13371;52.080;5.624;2024-02-26T03:35:40;8.95;;;5.20;;
25449;SDS011;13371;52.080;5.624;2024-02-26T03:38:05;8.52;;;4.97;;
25449;SDS011;13371;52.080;5.624;2024-02-26T03:40:31;9.63;;;5.40;;
25449;SDS011;13371;52.080;5.624;2024-02-26T03:42:57;9.73;;;4.93;;
25449;SDS011;13371;52.080;5.624;2024-02-26T03:45:23;9.30;;;5.50;;
25449;SDS011;13371;52.080;5.624;2024-02-26T03:47:50;11.05;;;6.18;;
25449;SDS011;13371;52.080;5.624;2024-02-26T03:50:16;9.18;;;5.45;;
25449;SDS011;13371;52.080;5.624;2024-02-26T03:52:42;11.35;;;6.25;;
25449;SDS011;13371;52.080;5.624;2024-02-26T03:55:07;9.98;;;5.65;;
25449;SDS011;13371;52.080;5.624;2024-02-26T03:57:34;9.75;;;5.55;;
25449;SDS011;13371;52.080;5.624;2024-02-26T04:00:00;12.82;;;5.97;;
25449;SDS011;13371;52.080;5.624;2024-02-26T04:02:26;9.88;;;5.60;;
25449;SDS011;13371;52.080;5.624;2024-02-26T04:04:52;9.32;;;5.40;;
25449;SDS011;13371;52.080;5.624;2024-02-26T04:07:17;9.00;;;5.55;;
25449;SDS011;13371;52.080;5.624;2024-02-26T04:09:43;9.73;;;6.20;;
25449;SDS011;13371;52.080;5.624;2024-02-26T04:12:09;8.40;;;5.53;;
25449;SDS011;13371;52.080;5.624;2024-02-26T04:14:35;9.75;;;5.50;;
25449;SDS011;13371;52.080;5.624;2024-02-26T04:17:01;11.18;;;6.05;;
25449;SDS011;13371;52.080;5.624;2024-02-26T04:19:26;10.48;;;6.43;;
25449;SDS011;13371;52.080;5.624;2024-02-26T04:21:52;10.57;;;5.55;;
25449;SDS011;13371;52.080;5.624;2024-02-26T04:24:18;10.00;;;6.15;;
25449;SDS011;13371;52.080;5.624;2024-02-26T04:26:43;10.35;;;5.60;;
25449;SDS011;13371;52.080;5.624;2024-02-26T04:29:09;11.68;;;5.65;;
25449;SDS011;13371;52.080;5.624;2024-02-26T04:31:34;10.73;;;6.25;;
25449;SDS011;13371;52.080;5.624;2024-02-26T04:34:02;9.10;;;5.85;;
25449;SDS011;13371;52.080;5.624;2024-02-26T04:36:28;10.05;;;5.38;;
25449;SDS011;13371;52.080;5.624;2024-02-26T04:38:53;9.95;;;5.85;;
25449;SDS011;13371;52.080;5.624;2024-02-26T04:41:22;9.52;;;5.30;;
25449;SDS011;13371;52.080;5.624;2024-02-26T04:43:47;11.88;;;5.88;;
25449;SDS011;13371;52.080;5.624;2024-02-26T04:46:15;10.50;;;5.45;;
25449;SDS011;13371;52.080;5.624;2024-02-26T04:48:43;10.40;;;5.68;;
25449;SDS011;13371;52.080;5.624;2024-02-26T04:51:11;10.23;;;5.63;;
25449;SDS011;13371;52.080;5.624;2024-02-26T04:53:37;12.38;;;5.90;;
25449;SDS011;13371;52.080;5.624;2024-02-26T04:56:03;10.45;;;5.25;;
25449;SDS011;13371;52.080;5.624;2024-02-26T04:58:29;11.02;;;6.15;;
25449;SDS011;13371;52.080;5.624;2024-02-26T05:00:54;12.40;;;5.78;;
25449;SDS011;13371;52.080;5.624;2024-02-26T05:03:20;8.88;;;5.47;;
25449;SDS011;13371;52.080;5.624;2024-02-26T05:05:46;9.98;;;6.18;;
25449;SDS011;13371;52.080;5.624;2024-02-26T05:08:12;9.50;;;5.32;;
25449;SDS011;13371;52.080;5.624;2024-02-26T05:10:37;10.95;;;5.38;;
25449;SDS011;13371;52.080;5.624;2024-02-26T05:13:06;8.98;;;5.15;;
25449;SDS011;13371;52.080;5.624;2024-02-26T05:15:32;9.85;;;5.07;;
25449;SDS011;13371;52.080;5.624;2024-02-26T05:17:57;7.22;;;4.82;;
25449;SDS011;13371;52.080;5.624;2024-02-26T05:20:23;9.70;;;5.40;;
25449;SDS011;13371;52.080;5.624;2024-02-26T05:22:49;8.70;;;5.05;;
25449;SDS011;13371;52.080;5.624;2024-02-26T05:25:15;8.48;;;5.07;;
25449;SDS011;13371;52.080;5.624;2024-02-26T05:27:41;11.98;;;5.75;;
25449;SDS011;13371;52.080;5.624;2024-02-26T05:30:08;10.60;;;6.22;;
25449;SDS011;13371;52.080;5.624;2024-02-26T05:32:34;7.80;;;4.60;;
25449;SDS011;13371;52.080;5.624;2024-02-26T05:35:00;8.48;;;4.57;;
25449;SDS011;13371;52.080;5.624;2024-02-26T05:37:28;8.32;;;5.13;;
25449;SDS011;13371;52.080;5.624;2024-02-26T05:39:53;9.18;;;5.25;;
25449;SDS011;13371;52.080;5.624;2024-02-26T05:42:19;10.07;;;4.95;;
25449;SDS011;13371;52.080;5.624;2024-02-26T05:44:44;10.98;;;6.05;;
25449;SDS011;13371;52.080;5.624;2024-02-26T05:47:10;11.00;;;5.93;;
25449;SDS011;13371;52.080;5.624;2024-02-26T05:49:36;11.35;;;5.80;;
25449;SDS011;13371;52.080;5.624;2024-02-26T05:52:01;13.55;;;5.80;;
25449;SDS011;13371;52.080;5.624;2024-02-26T05:54:27;9.50;;;5.78;;
25449;SDS011;13371;52.080;5.624;2024-02-26T05:56:53;9.27;;;5.28;;
25449;SDS011;13371;52.080;5.624;2024-02-26T05:59:19;10.30;;;6.43;;
25449;SDS011;13371;52.080;5.624;2024-02-26T06:01:44;10.65;;;6.03;;
25449;SDS011;13371;52.080;5.624;2024-02-26T06:04:10;12.30;;;6.45;;
25449;SDS011;13371;52.080;5.624;2024-02-26T06:06:37;12.35;;;6.00;;
25449;SDS011;13371;52.080;5.624;2024-02-26T06:09:02;12.35;;;5.72;;
25449;SDS011;13371;52.080;5.624;2024-02-26T06:11:30;11.43;;;5.80;;
25449;SDS011;13371;52.080;5.624;2024-02-26T06:13:56;13.75;;;5.93;;
25449;SDS011;13371;52.080;5.624;2024-02-26T06:16:22;9.68;;;5.78;;
25449;SDS011;13371;52.080;5.624;2024-02-26T06:18:47;10.98;;;6.35;;
25449;SDS011;13371;52.080;5.624;2024-02-26T06:21:13;9.60;;;6.05;;
25449;SDS011;13371;52.080;5.624;2024-02-26T06:23:39;13.35;;;6.55;;
25449;SDS011;13371;52.080;5.624;2024-02-26T06:26:05;13.40;;;6.53;;
25449;SDS011;13371;52.080;5.624;2024-02-26T06:28:31;10.63;;;5.95;;
25449;SDS011;13371;52.080;5.624;2024-02-26T06:30:58;13.52;;;6.85;;
25449;SDS011;13371;52.080;5.624;2024-02-26T06:33:24;12.07;;;6.60;;
25449;SDS011;13371;52.080;5.624;2024-02-26T06:35:50;12.60;;;6.40;;
25449;SDS011;13371;52.080;5.624;2024-02-26T06:38:15;14.10;;;6.72;;
25449;SDS011;13371;52.080;5.624;2024-02-26T06:40:42;12.25;;;6.30;;
25449;SDS011;13371;52.080;5.624;2024-02-26T06:43:08;19.45;;;7.45;;
25449;SDS011;13371;52.080;5.624;2024-02-26T06:45:34;12.70;;;6.80;;
25449;SDS011;13371;52.080;5.624;2024-02-26T06:48:00;13.85;;;6.95;;
25449;SDS011;13371;52.080;5.624;2024-02-26T06:50:25;15.30;;;7.03;;
25449;SDS011;13371;52.080;5.624;2024-02-26T06:52:51;14.63;;;7.43;;
25449;SDS011;13371;52.080;5.624;2024-02-26T06:55:16;13.35;;;6.93;;
25449;SDS011;13371;52.080;5.624;2024-02-26T06:57:42;11.73;;;6.88;;
25449;SDS011;13371;52.080;5.624;2024-02-26T07:00:08;14.77;;;7.75;;
25449;SDS011;13371;52.080;5.624;2024-02-26T07:02:37;16.88;;;8.05;;
25449;SDS011;13371;52.080;5.624;2024-02-26T07:05:03;16.40;;;8.15;;
25449;SDS011;13371;52.080;5.624;2024-02-26T07:07:28;16.60;;;9.07;;
25449;SDS011;13371;52.080;5.624;2024-02-26T07:09:54;13.93;;;7.22;;
25449;SDS011;13371;52.080;5.624;2024-02-26T07:12:20;14.50;;;7.60;;
25449;SDS011;13371;52.080;5.624;2024-02-26T07:14:46;15.05;;;7.38;;
25449;SDS011;13371;52.080;5.624;2024-02-26T07:17:12;15.85;;;8.68;;
25449;SDS011;13371;52.080;5.624;2024-02-26T07:19:38;15.20;;;7.43;;
25449;SDS011;13371;52.080;5.624;2024-02-26T07:22:04;16.60;;;8.32;;
25449;SDS011;13371;52.080;5.624;2024-02-26T07:24:29;17.27;;;8.65;;
25449;SDS011;13371;52.080;5.624;2024-02-26T07:26:55;18.45;;;8.50;;
25449;SDS011;13371;52.080;5.624;2024-02-26T07:29:21;17.67;;;8.05;;
25449;SDS011;13371;52.080;5.624;2024-02-26T07:31:47;18.05;;;8.63;;
25449;SDS011;13371;52.080;5.624;2024-02-26T07:34:12;17.40;;;8.60;;
25449;SDS011;13371;52.080;5.624;2024-02-26T07:36:38;17.85;;;9.48;;
25449;SDS011;13371;52.080;5.624;2024-02-26T07:39:04;18.95;;;9.48;;
25449;SDS011;13371;52.080;5.624;2024-02-26T07:41:30;18.98;;;9.18;;
25449;SDS011;13371;52.080;5.624;2024-02-26T07:43:56;22.42;;;9.30;;
25449;SDS011;13371;52.080;5.624;2024-02-26T07:46:21;22.02;;;10.05;;
25449;SDS011;13371;52.080;5.624;2024-02-26T07:48:47;21.15;;;10.00;;
25449;SDS011;13371;52.080;5.624;2024-02-26T07:51:13;27.45;;;9.98;;
25449;SDS011;13371;52.080;5.624;2024-02-26T07:53:39;18.58;;;9.50;;
25449;SDS011;13371;52.080;5.624;2024-02-26T07:56:05;22.67;;;10.80;;
25449;SDS011;13371;52.080;5.624;2024-02-26T07:58:32;24.27;;;10.82;;
25449;SDS011;13371;52.080;5.624;2024-02-26T08:00:58;25.48;;;9.65;;
25449;SDS011;13371;52.080;5.624;2024-02-26T08:03:24;23.40;;;11.02;;
25449;SDS011;13371;52.080;5.624;2024-02-26T08:05:57;24.08;;;11.63;;
25449;SDS011;13371;52.080;5.624;2024-02-26T08:08:23;23.58;;;11.63;;
25449;SDS011;13371;52.080;5.624;2024-02-26T08:10:48;23.40;;;11.10;;
25449;SDS011;13371;52.080;5.624;2024-02-26T08:13:14;25.50;;;11.32;;
25449;SDS011;13371;52.080;5.624;2024-02-26T08:15:40;24.52;;;11.80;;
25449;SDS011;13371;52.080;5.624;2024-02-26T08:18:06;25.17;;;10.98;;
25449;SDS011;13371;52.080;5.624;2024-02-26T08:20:31;27.70;;;11.35;;
25449;SDS011;13371;52.080;5.624;2024-02-26T08:22:57;30.65;;;12.40;;
25449;SDS011;13371;52.080;5.624;2024-02-26T08:25:23;25.65;;;11.63;;
25449;SDS011;13371;52.080;5.624;2024-02-26T08:27:49;21.88;;;10.55;;
25449;SDS011;13371;52.080;5.624;2024-02-26T08:30:15;25.58;;;11.82;;
25449;SDS011;13371;52.080;5.624;2024-02-26T08:32:42;21.75;;;10.88;;
25449;SDS011;13371;52.080;5.624;2024-02-26T08:35:09;24.88;;;11.95;;
25449;SDS011;13371;52.080;5.624;2024-02-26T08:37:37;28.00;;;12.38;;
25449;SDS011;13371;52.080;5.624;2024-02-26T08:40:12;24.45;;;10.48;;
25449;SDS011;13371;52.080;5.624;2024-02-26T08:43:13;19.98;;;9.57;;
25449;SDS011;13371;52.080;5.624;2024-02-26T08:46:06;20.27;;;9.70;;
25449;SDS011;13371;52.080;5.624;2024-02-26T08:48:57;20.35;;;9.10;;
25449;SDS011;13371;52.080;5.624;2024-02-26T08:51:23;18.38;;;9.75;;
25449;SDS011;13371;52.080;5.624;2024-02-26T08:53:51;19.33;;;8.88;;
25449;SDS011;13371;52.080;5.624;2024-02-26T08:56:20;19.65;;;9.27;;
25449;SDS011;13371;52.080;5.624;2024-02-26T08:59:01;18.83;;;8.80;;
25449;SDS011;13371;52.080;5.624;2024-02-26T09:01:38;15.80;;;8.43;;
25449;SDS011;13371;52.080;5.624;2024-02-26T09:04:17;14.32;;;8.20;;
25449;SDS011;13371;52.080;5.624;2024-02-26T09:06:48;15.52;;;8.75;;
25449;SDS011;13371;52.080;5.624;2024-02-26T09:09:20;15.13;;;7.80;;
25449;SDS011;13371;52.080;5.624;2024-02-26T09:11:59;20.95;;;8.52;;
25449;SDS011;13371;52.080;5.624;2024-02-26T09:14:48;15.30;;;7.53;;
25449;SDS011;13371;52.080;5.624;2024-02-26T09:17:23;14.20;;;7.57;;
25449;SDS011;13371;52.080;5.624;2024-02-26T09:19:59;13.68;;;7.20;;
25449;SDS011;13371;52.080;5.624;2024-02-26T09:22:31;16.48;;;7.63;;
25449;SDS011;13371;52.080;5.624;2024-02-26T09:25:00;19.20;;;7.32;;
25449;SDS011;13371;52.080;5.624;2024-02-26T09:27:30;15.13;;;8.13;;
25449;SDS011;13371;52.080;5.624;2024-02-26T09:29:59;12.60;;;7.47;;
25449;SDS011;13371;52.080;5.624;2024-02-26T09:32:25;13.73;;;7.07;;
25449;SDS011;13371;52.080;5.624;2024-02-26T09:35:08;19.00;;;8.18;;
25449;SDS011;13371;52.080;5.624;2024-02-26T09:37:43;14.60;;;7.75;;
25449;SDS011;13371;52.080;5.624;2024-02-26T09:43:44;14.35;;;7.20;;
25449;SDS011;13371;52.080;5.624;2024-02-26T09:46:13;13.90;;;6.95;;
25449;SDS011;13371;52.080;5.624;2024-02-26T09:48:45;13.02;;;6.40;;
25449;SDS011;13371;52.080;5.624;2024-02-26T09:51:12;14.52;;;6.45;;
25449;SDS011;13371;52.080;5.624;2024-02-26T09:53:40;11.95;;;6.65;;
25449;SDS011;13371;52.080;5.624;2024-02-26T09:56:13;14.57;;;7.18;;
25449;SDS011;13371;52.080;5.624;2024-02-26T09:58:50;14.43;;;7.55;;
25449;SDS011;13371;52.080;5.624;2024-02-26T10:01:19;14.70;;;6.60;;
25449;SDS011;13371;52.080;5.624;2024-02-26T10:03:47;12.27;;;6.20;;
25449;SDS011;13371;52.080;5.624;2024-02-26T10:06:19;11.60;;;5.50;;
25449;SDS011;13371;52.080;5.624;2024-02-26T10:11:55;11.23;;;5.70;;
25449;SDS011;13371;52.080;5.624;2024-02-26T10:14:21;15.15;;;6.30;;
25449;SDS011;13371;52.080;5.624;2024-02-26T10:16:52;11.98;;;5.60;;
25449;SDS011;13371;52.080;5.624;2024-02-26T10:19:31;11.35;;;6.38;;
25449;SDS011;13371;52.080;5.624;2024-02-26T10:22:00;10.40;;;6.43;;
25449;SDS011;13371;52.080;5.624;2024-02-26T10:24:34;10.82;;;6.45;;
25449;SDS011;13371;52.080;5.624;2024-02-26T10:27:03;13.25;;;6.65;;
25449;SDS011;13371;52.080;5.624;2024-02-26T10:29:32;12.05;;;6.38;;
25449;SDS011;13371;52.080;5.624;2024-02-26T10:32:06;12.00;;;6.30;;
25449;SDS011;13371;52.080;5.624;2024-02-26T10:34:39;12.35;;;6.43;;
25449;SDS011;13371;52.080;5.624;2024-02-26T10:37:06;11.50;;;6.20;;
25449;SDS011;13371;52.080;5.624;2024-02-26T10:39:37;12.68;;;6.10;;
25449;SDS011;13371;52.080;5.624;2024-02-26T10:42:25;11.43;;;6.15;;
25449;SDS011;13371;52.080;5.624;2024-02-26T10:44:58;13.25;;;6.32;;
25449;SDS011;13371;52.080;5.624;2024-02-26T10:47:30;13.23;;;6.65;;
25449;SDS011;13371;52.080;5.624;2024-02-26T10:49:56;15.63;;;7.43;;
25449;SDS011;13371;52.080;5.624;2024-02-26T10:52:33;16.13;;;6.53;;
25449;SDS011;13371;52.080;5.624;2024-02-26T10:55:18;11.10;;;5.72;;
25449;SDS011;13371;52.080;5.624;2024-02-26T10:57:53;9.20;;;5.88;;
25449;SDS011;13371;52.080;5.624;2024-02-26T11:00:22;10.45;;;5.93;;
25449;SDS011;13371;52.080;5.624;2024-02-26T11:03:04;11.02;;;6.05;;
25449;SDS011;13371;52.080;5.624;2024-02-26T11:05:50;13.77;;;5.97;;
25449;SDS011;13371;52.080;5.624;2024-02-26T11:08:21;10.88;;;5.93;;
25449;SDS011;13371;52.080;5.624;2024-02-26T11:10:54;11.80;;;6.63;;
25449;SDS011;13371;52.080;5.624;2024-02-26T11:13:21;14.10;;;6.43;;
25449;SDS011;13371;52.080;5.624;2024-02-26T11:15:51;10.48;;;5.97;;
25449;SDS011;13371;52.080;5.624;2024-02-26T11:18:22;14.98;;;6.22;;
25449;SDS011;13371;52.080;5.624;2024-02-26T11:20:49;11.20;;;5.53;;
25449;SDS011;13371;52.080;5.624;2024-02-26T11:23:15;11.73;;;6.03;;
25449;SDS011;13371;52.080;5.624;2024-02-26T11:25:40;9.93;;;5.50;;
25449;SDS011;13371;52.080;5.624;2024-02-26T11:28:11;9.38;;;5.70;;
25449;SDS011;13371;52.080;5.624;2024-02-26T11:30:40;12.07;;;6.50;;
25449;SDS011;13371;52.080;5.624;2024-02-26T11:33:08;9.50;;;5.30;;
25449;SDS011;13371;52.080;5.624;2024-02-26T11:35:38;15.07;;;6.28;;
25449;SDS011;13371;52.080;5.624;2024-02-26T11:38:04;13.13;;;6.32;;
25449;SDS011;13371;52.080;5.624;2024-02-26T11:40:31;13.20;;;5.90;;
25449;SDS011;13371;52.080;5.624;2024-02-26T11:42:57;9.93;;;5.60;;
25449;SDS011;13371;52.080;5.624;2024-02-26T11:46:08;11.93;;;6.15;;
25449;SDS011;13371;52.080;5.624;2024-02-26T11:48:13;11.23;;;6.20;;
25449;SDS011;13371;52.080;5.624;2024-02-26T11:50:40;10.10;;;5.20;;
25449;SDS011;13371;52.080;5.624;2024-02-26T11:53:24;10.07;;;5.05;;
25449;SDS011;13371;52.080;5.624;2024-02-26T11:58:45;9.45;;;4.93;;
25449;SDS011;13371;52.080;5.624;2024-02-26T12:06:48;11.00;;;5.40;;
25449;SDS011;13371;52.080;5.624;2024-02-26T12:12:02;8.43;;;4.30;;
25449;SDS011;13371;52.080;5.624;2024-02-26T12:14:37;9.95;;;5.05;;
25449;SDS011;13371;52.080;5.624;2024-02-26T12:17:03;8.90;;;4.55;;
25449;SDS011;13371;52.080;5.624;2024-02-26T12:19:32;10.23;;;5.45;;
25449;SDS011;13371;52.080;5.624;2024-02-26T12:21:59;10.20;;;4.78;;
25449;SDS011;13371;52.080;5.624;2024-02-26T12:24:24;13.93;;;6.57;;
25449;SDS011;13371;52.080;5.624;2024-02-26T12:26:50;10.18;;;4.90;;
25449;SDS011;13371;52.080;5.624;2024-02-26T12:29:15;12.73;;;5.60;;
25449;SDS011;13371;52.080;5.624;2024-02-26T12:31:41;11.13;;;5.70;;
25449;SDS011;13371;52.080;5.624;2024-02-26T12:34:07;9.50;;;5.15;;
25449;SDS011;13371;52.080;5.624;2024-02-26T12:36:36;10.30;;;5.57;;
25449;SDS011;13371;52.080;5.624;2024-02-26T12:39:03;8.38;;;4.53;;
25449;SDS011;13371;52.080;5.624;2024-02-26T12:41:34;8.98;;;4.78;;
25449;SDS011;13371;52.080;5.624;2024-02-26T12:44:00;10.20;;;4.95;;
25449;SDS011;13371;52.080;5.624;2024-02-26T12:46:26;10.38;;;5.15;;
25449;SDS011;13371;52.080;5.624;2024-02-26T12:48:51;8.35;;;4.78;;
25449;SDS011;13371;52.080;5.624;2024-02-26T12:51:21;9.45;;;5.25;;
25449;SDS011;13371;52.080;5.624;2024-02-26T12:53:47;11.57;;;5.25;;
25449;SDS011;13371;52.080;5.624;2024-02-26T12:56:15;6.93;;;3.83;;
25449;SDS011;13371;52.080;5.624;2024-02-26T12:58:41;9.93;;;4.75;;
25449;SDS011;13371;52.080;5.624;2024-02-26T13:01:07;10.00;;;5.43;;
25449;SDS011;13371;52.080;5.624;2024-02-26T13:03:40;9.80;;;5.40;;
25449;SDS011;13371;52.080;5.624;2024-02-26T13:06:06;14.18;;;5.97;;
25449;SDS011;13371;52.080;5.624;2024-02-26T13:08:32;8.65;;;4.93;;
25449;SDS011;13371;52.080;5.624;2024-02-26T13:10:58;11.70;;;5.30;;
25449;SDS011;13371;52.080;5.624;2024-02-26T13:13:25;7.97;;;4.60;;
25449;SDS011;13371;52.080;5.624;2024-02-26T13:16:00;11.30;;;5.40;;
25449;SDS011;13371;52.080;5.624;2024-02-26T13:18:30;10.65;;;5.75;;
25449;SDS011;13371;52.080;5.624;2024-02-26T13:21:07;9.05;;;5.18;;
25449;SDS011;13371;52.080;5.624;2024-02-26T13:23:34;10.75;;;5.40;;
25449;SDS011;13371;52.080;5.624;2024-02-26T13:25:59;9.45;;;4.35;;
25449;SDS011;13371;52.080;5.624;2024-02-26T13:28:25;12.07;;;4.93;;
25449;SDS011;13371;52.080;5.624;2024-02-26T13:30:53;9.00;;;5.05;;
25449;SDS011;13371;52.080;5.624;2024-02-26T13:33:27;8.93;;;5.43;;
25449;SDS011;13371;52.080;5.624;2024-02-26T13:35:57;9.57;;;5.28;;
25449;SDS011;13371;52.080;5.624;2024-02-26T13:38:23;10.48;;;4.93;;
25449;SDS011;13371;52.080;5.624;2024-02-26T13:40:49;8.15;;;4.43;;
25449;SDS011;13371;52.080;5.624;2024-02-26T13:43:15;9.50;;;4.65;;
25449;SDS011;13371;52.080;5.624;2024-02-26T13:45:41;11.20;;;5.50;;
25449;SDS011;13371;52.080;5.624;2024-02-26T13:48:08;10.40;;;5.45;;
25449;SDS011;13371;52.080;5.624;2024-02-26T13:50:36;8.52;;;4.78;;
25449;SDS011;13371;52.080;5.624;2024-02-26T13:53:02;7.90;;;4.57;;
25449;SDS011;13371;52.080;5.624;2024-02-26T13:55:29;8.75;;;4.78;;
25449;SDS011;13371;52.080;5.624;2024-02-26T13:57:56;10.10;;;5.10;;
25449;SDS011;13371;52.080;5.624;2024-02-26T14:00:23;9.13;;;4.57;;
25449;SDS011;13371;52.080;5.624;2024-02-26T14:02:52;9.40;;;4.68;;
25449;SDS011;13371;52.080;5.624;2024-02-26T14:05:18;9.35;;;4.82;;
25449;SDS011;13371;52.080;5.624;2024-02-26T14:07:43;9.40;;;5.00;;
25449;SDS011;13371;52.080;5.624;2024-02-26T14:10:11;10.18;;;4.93;;
25449;SDS011;13371;52.080;5.624;2024-02-26T14:12:37;10.82;;;5.70;;
25449;SDS011;13371;52.080;5.624;2024-02-26T14:15:04;9.20;;;4.50;;
25449;SDS011;13371;52.080;5.624;2024-02-26T14:17:34;9.05;;;5.00;;
25449;SDS011;13371;52.080;5.624;2024-02-26T14:20:00;9.63;;;5.13;;
25449;SDS011;13371;52.080;5.624;2024-02-26T14:22:25;7.97;;;4.18;;
25449;SDS011;13371;52.080;5.624;2024-02-26T14:24:52;7.05;;;4.32;;
25449;SDS011;13371;52.080;5.624;2024-02-26T14:27:18;10.23;;;5.35;;
25449;SDS011;13371;52.080;5.624;2024-02-26T14:29:45;7.85;;;5.22;;
25449;SDS011;13371;52.080;5.624;2024-02-26T14:32:11;9.32;;;4.60;;
25449;SDS011;13371;52.080;5.624;2024-02-26T14:34:37;7.53;;;3.88;;
25449;SDS011;13371;52.080;5.624;2024-02-26T14:37:03;11.05;;;5.32;;
25449;SDS011;13371;52.080;5.624;2024-02-26T14:39:29;8.07;;;4.38;;
25449;SDS011;13371;52.080;5.624;2024-02-26T14:41:56;8.63;;;4.82;;
25449;SDS011;13371;52.080;5.624;2024-02-26T14:44:22;9.40;;;5.35;;
25449;SDS011;13371;52.080;5.624;2024-02-26T14:46:49;8.70;;;4.25;;
25449;SDS011;13371;52.080;5.624;2024-02-26T14:49:15;7.55;;;3.97;;
25449;SDS011;13371;52.080;5.624;2024-02-26T14:51:40;8.70;;;5.18;;
25449;SDS011;13371;52.080;5.624;2024-02-26T14:54:06;7.22;;;4.13;;
25449;SDS011;13371;52.080;5.624;2024-02-26T14:56:32;8.23;;;4.35;;
25449;SDS011;13371;52.080;5.624;2024-02-26T14:58:58;7.38;;;3.97;;
25449;SDS011;13371;52.080;5.624;2024-02-26T15:01:31;7.63;;;4.00;;